Time;durP1;ratioP1;P1;durP2;ratioP2;P2;SDS_P1;SDS_P2;PMS_P1;PMS_P2;Temp;Humidity;BMP_temperature;BMP_pressure;BME280_temperature;BME280_humidity;BME280_pressure;Samples;Min_cycle;Max_cycle;Signal;HPM_P1;HPM_P2
2022/07/06 05:01:37;;;;;;;7.53;2.80;;;16.80;88.00;;;;;;5912673;23;20028;31
2022/07/06 05:04:04;;;;;;;4.68;2.60;;;16.80;88.00;;;;;;4886253;29;20105;-74
2022/07/06 05:06:30;;;;;;;6.10;2.50;;;16.90;88.00;;;;;;4900445;29;20033;-77
2022/07/06 05:08:56;;;;;;;5.78;2.75;;;16.90;88.10;;;;;;4890103;29;20064;-74
2022/07/06 05:11:22;;;;;;;7.82;2.88;;;16.90;88.10;;;;;;4888469;29;20041;-77
2022/07/06 05:13:49;;;;;;;3.90;2.67;;;16.90;88.20;;;;;;4888758;29;20076;-76
2022/07/06 05:16:19;;;;;;;6.40;3.10;;;16.90;88.40;;;;;;4887995;29;20222;-76
2022/07/06 05:18:44;;;;;;;5.65;2.40;;;17.00;87.90;;;;;;4889866;29;20059;-76
2022/07/06 05:21:14;;;;;;;5.68;2.75;;;17.10;87.70;;;;;;4899971;29;20041;-76
2022/07/06 05:23:40;;;;;;;7.25;2.65;;;17.10;87.60;;;;;;4890108;29;20085;-75
2022/07/06 05:26:15;;;;;;;5.82;2.47;;;17.10;87.60;;;;;;4904757;29;20041;-75
2022/07/06 05:28:42;;;;;;;4.68;2.70;;;17.20;87.20;;;;;;4904349;29;20058;-75
2022/07/06 05:31:15;;;;;;;5.35;2.60;;;17.30;86.90;;;;;;4903148;29;20041;-75
2022/07/06 05:33:40;;;;;;;3.75;2.53;;;17.30;86.80;;;;;;4888436;29;20033;-76
2022/07/06 05:36:07;;;;;;;3.92;2.55;;;17.40;86.30;;;;;;4899611;29;20025;-75
2022/07/06 05:38:36;;;;;;;7.05;2.88;;;17.50;86.00;;;;;;4884905;29;20029;-75
2022/07/06 05:41:02;;;;;;;5.57;2.55;;;17.50;85.80;;;;;;4885121;29;20037;-75
2022/07/06 05:43:28;;;;;;;5.93;3.00;;;17.60;86.00;;;;;;4870503;29;20218;-77
2022/07/06 05:45:56;;;;;;;4.90;2.40;;;17.60;86.10;;;;;;4884842;29;20049;-77
2022/07/06 05:51:16;;;;;;;6.88;2.85;;;17.70;85.30;;;;;;4886761;29;20116;-76
2022/07/06 05:53:43;;;;;;;4.20;2.30;;;17.80;85.30;;;;;;4886037;29;20033;-75
2022/07/06 05:56:12;;;;;;;4.60;2.47;;;17.80;85.60;;;;;;4870149;29;20059;-75
2022/07/06 05:58:39;;;;;;;3.75;2.45;;;17.90;85.20;;;;;;4884889;29;20018;-76
2022/07/06 06:01:07;;;;;;;4.60;2.35;;;17.90;85.20;;;;;;4884192;29;20084;-75
2022/07/06 06:03:39;;;;;;;7.75;2.90;;;18.00;85.30;;;;;;4902161;29;20052;-76
2022/07/06 06:06:05;;;;;;;10.50;2.78;;;18.10;84.10;;;;;;4903750;29;20338;-73
2022/07/06 06:08:37;;;;;;;4.90;2.40;;;18.20;84.30;;;;;;4907417;29;20044;-74
2022/07/06 06:11:04;;;;;;;5.93;2.35;;;18.30;83.70;;;;;;4920130;29;20058;-77
2022/07/06 06:13:33;;;;;;;4.60;2.30;;;18.30;83.00;;;;;;4906391;29;20318;-82
2022/07/06 06:15:58;;;;;;;;;;;18.40;82.80;;;;;;4906733;29;20051;-77
2022/07/06 06:18:24;;;;;;;5.70;2.50;;;18.50;82.40;;;;;;4904947;29;19911;-76
2022/07/06 06:20:50;;;;;;;4.43;2.58;;;18.60;82.60;;;;;;4906047;29;20041;-77
2022/07/06 06:23:15;;;;;;;5.90;2.30;;;18.60;81.80;;;;;;4900134;29;20025;-77
2022/07/06 06:25:41;;;;;;;4.93;2.30;;;18.50;81.90;;;;;;4904630;29;20028;-76
2022/07/06 06:28:09;;;;;;;4.78;2.67;;;18.50;81.70;;;;;;4905433;29;20025;-77
2022/07/06 06:30:38;;;;;;;4.63;2.45;;;18.60;81.90;;;;;;4905000;29;20371;-77
2022/07/06 06:33:17;;;;;;;5.22;2.45;;;18.70;81.60;;;;;;4906404;29;20036;-77
2022/07/06 06:35:48;;;;;;;4.57;2.20;;;18.80;81.10;;;;;;4906342;29;20044;-76
2022/07/06 06:38:15;;;;;;;7.18;2.47;;;18.90;81.00;;;;;;4918921;29;20028;-76
2022/07/06 06:40:41;;;;;;;4.43;2.00;;;18.80;80.90;;;;;;4888674;29;20040;-76
2022/07/06 06:43:07;;;;;;;6.13;2.70;;;19.00;80.80;;;;;;4887377;29;20344;-76
2022/07/06 06:45:44;;;;;;;8.32;2.28;;;19.10;80.40;;;;;;4888763;29;20056;-76
2022/07/06 06:48:10;;;;;;;5.85;2.80;;;19.10;80.40;;;;;;4887496;29;20048;-76
2022/07/06 06:50:36;;;;;;;5.82;2.25;;;19.30;79.90;;;;;;4901806;29;20449;-76
2022/07/06 06:53:06;;;;;;;3.40;1.95;;;19.50;80.10;;;;;;4903396;29;20055;-79
2022/07/06 06:55:31;;;;;;;7.45;2.40;;;19.60;78.20;;;;;;4920145;29;20048;-77
2022/07/06 06:58:00;;;;;;;4.35;1.73;;;19.60;76.90;;;;;;4905269;29;20044;-81
2022/07/06 07:00:32;;;;;;;3.70;2.15;;;19.70;76.80;;;;;;4920320;29;20267;-83
2022/07/06 07:03:05;;;;;;;7.95;2.60;;;19.90;77.50;;;;;;4905500;29;20059;-80
2022/07/06 07:05:31;;;;;;;7.80;2.65;;;20.00;77.60;;;;;;4920681;29;20116;-82
2022/07/06 07:08:19;;;;;;;5.68;2.35;;;19.80;77.90;;;;;;4906238;29;20036;-79
2022/07/06 07:11:00;;;;;;;4.60;2.05;;;19.90;77.30;;;;;;4906623;29;20036;-81
2022/07/06 07:13:35;;;;;;;3.75;2.15;;;20.00;77.50;;;;;;4920557;29;20036;-84
2022/07/06 07:16:19;;;;;;;5.47;2.10;;;20.00;77.80;;;;;;4905324;29;20348;-83
2022/07/06 07:18:47;;;;;;;4.57;2.03;;;20.10;77.00;;;;;;4904270;29;20041;-77
2022/07/06 07:21:16;;;;;;;4.78;2.20;;;20.10;76.30;;;;;;4905385;29;20040;-78
2022/07/06 07:23:50;;;;;;;6.22;2.35;;;20.20;75.80;;;;;;4905744;29;20037;-78
2022/07/06 07:26:47;;;;;;;6.30;1.90;;;20.20;76.00;;;;;;4888158;29;20036;-77
2022/07/06 07:29:27;;;;;;;5.97;2.10;;;20.20;76.20;;;;;;4905532;29;20374;-78
2022/07/06 07:31:56;;;;;;;5.38;2.30;;;20.30;76.30;;;;;;4905687;29;20056;-79
2022/07/06 07:34:49;;;;;;;4.40;2.00;;;20.40;75.80;;;;;;4905603;29;20033;-78
2022/07/06 07:37:21;;;;;;;9.10;2.22;;;20.50;75.70;;;;;;4905586;29;20049;-79
2022/07/06 07:39:49;;;;;;;4.70;2.22;;;20.50;75.60;;;;;;4920288;29;20144;-77
2022/07/06 07:42:18;;;;;;;8.15;2.35;;;20.70;74.80;;;;;;4905414;29;20028;-78
2022/07/06 07:44:44;;;;;;;4.07;2.08;;;20.70;73.00;;;;;;4906034;29;20025;-80
2022/07/06 07:47:13;;;;;;;6.05;2.22;;;20.60;73.00;;;;;;4905321;29;20048;-79
2022/07/06 07:50:26;;;;;;;;;;;;;;;;;;;;;
2022/07/06 07:53:18;;;;;;;6.45;2.20;;;20.70;74.00;;;;;;4904934;29;20356;-79
2022/07/06 07:55:58;;;;;;;4.97;2.15;;;20.80;74.70;;;;;;4904352;29;20066;-82
2022/07/06 07:58:27;;;;;;;5.57;1.95;;;20.80;74.80;;;;;;4905684;29;20073;-78
2022/07/06 08:01:02;;;;;;;4.40;1.60;;;21.00;73.90;;;;;;4903461;29;20048;-80
2022/07/06 08:03:29;;;;;;;5.35;1.90;;;21.00;74.40;;;;;;4919688;29;20372;-81
2022/07/06 08:05:55;;;;;;;4.82;2.13;;;21.10;73.30;;;;;;4905850;29;20028;-79
2022/07/06 08:08:33;;;;;;;5.25;2.03;;;21.10;74.20;;;;;;4905182;29;20080;-80
2022/07/06 08:11:07;;;;;;;3.25;1.67;;;21.00;74.70;;;;;;4905913;29;20045;-79
2022/07/06 08:13:55;;;;;;;4.25;1.80;;;21.00;74.80;;;;;;4918001;29;20072;-78
2022/07/06 08:16:30;;;;;;;5.80;2.10;;;21.20;74.30;;;;;;4902262;29;20041;-79
2022/07/06 08:19:02;;;;;;;5.70;1.95;;;21.30;73.50;;;;;;4887714;29;20307;-78
2022/07/06 08:21:28;;;;;;;5.53;2.22;;;21.40;73.30;;;;;;4889216;29;20334;-78
2022/07/06 08:24:25;;;;;;;5.05;2.40;;;21.40;73.30;;;;;;4904797;29;20045;-79
2022/07/06 08:27:33;;;;;;;7.38;2.40;;;21.30;72.90;;;;;;4918097;29;20099;-81
2022/07/06 08:33:53;;;;;;;5.93;2.05;;;21.30;73.40;;;;;;4887558;29;20053;-77
2022/07/06 08:36:46;;;;;;;4.13;2.00;;;21.80;73.50;;;;;;4888447;29;20126;-77
2022/07/06 08:39:21;;;;;;;7.30;2.13;;;22.00;71.90;;;;;;4869169;29;20033;-78
2022/07/06 08:41:51;;;;;;;3.55;2.00;;;22.00;72.20;;;;;;4888671;29;20048;-77
2022/07/06 08:44:26;;;;;;;5.97;2.20;;;22.00;71.90;;;;;;4933199;29;20036;-77
2022/07/06 08:46:57;;;;;;;3.35;1.80;;;22.10;71.30;;;;;;4915874;29;20157;-77
2022/07/06 08:49:58;;;;;;;4.13;2.28;;;22.10;71.20;;;;;;4911819;29;20065;-78
2022/07/06 08:52:31;;;;;;;4.10;2.15;;;22.10;70.70;;;;;;4906975;29;20029;-79
2022/07/06 08:55:23;;;;;;;4.10;2.17;;;22.20;71.50;;;;;;4875127;29;20037;-80
2022/07/06 08:57:54;;;;;;;10.00;2.28;;;22.00;71.70;;;;;;4891808;29;20040;-77
2022/07/06 09:00:20;;;;;;;3.55;1.80;;;22.10;72.50;;;;;;4889619;29;20037;-75
2022/07/06 09:02:56;;;;;;;7.85;2.00;;;22.30;73.20;;;;;;4888274;29;20045;-77
2022/07/06 09:05:27;;;;;;;5.68;2.15;;;22.40;71.30;;;;;;4888518;29;20131;-79
2022/07/06 09:07:53;;;;;;;5.72;2.05;;;22.50;70.70;;;;;;4889843;29;20052;-78
2022/07/06 09:10:22;;;;;;;5.20;2.10;;;22.60;70.30;;;;;;4898664;29;20052;-78
2022/07/06 09:12:48;;;;;;;4.88;2.00;;;22.60;70.50;;;;;;4908230;29;20024;-77
2022/07/06 09:15:27;;;;;;;5.95;2.40;;;22.60;70.80;;;;;;4907342;29;20044;-77
2022/07/06 09:18:05;;;;;;;6.53;2.10;;;22.50;70.30;;;;;;4922188;29;20088;-79
2022/07/06 09:20:36;;;;;;;6.03;2.43;;;22.70;70.70;;;;;;4908120;29;20075;-78
2022/07/06 09:23:27;;;;;;;6.65;2.17;;;22.70;69.40;;;;;;4907904;29;20043;-78
2022/07/06 09:25:53;;;;;;;5.25;2.05;;;22.70;70.10;;;;;;4907595;29;20017;-78
2022/07/06 09:28:48;;;;;;;;;;;22.80;69.70;;;;;;4906753;29;20103;-77
2022/07/06 09:31:26;;;;;;;5.72;2.40;;;22.80;68.90;;;;;;4904568;29;20221;-79
2022/07/06 09:34:09;;;;;;;4.78;1.63;;;22.60;69.50;;;;;;4907315;29;20037;-79
2022/07/06 09:36:53;;;;;;;5.47;2.17;;;23.00;69.90;;;;;;4892014;29;20043;-79
2022/07/06 09:39:24;;;;;;;5.03;1.85;;;23.30;68.10;;;;;;4906973;29;20462;-78
2022/07/06 09:41:56;;;;;;;4.18;1.55;;;23.30;68.10;;;;;;4906247;29;20028;-78
2022/07/06 09:44:36;;;;;;;4.25;1.70;;;23.60;67.70;;;;;;4906638;29;20063;-78
2022/07/06 09:47:12;;;;;;;3.47;1.95;;;23.80;66.70;;;;;;4906392;29;20036;-78
2022/07/06 09:49:39;;;;;;;5.63;2.08;;;24.00;66.40;;;;;;4906626;29;20028;-79
2022/07/06 09:52:26;;;;;;;4.72;1.75;;;24.10;65.80;;;;;;4908204;29;20468;-79
2022/07/06 09:54:52;;;;;;;4.13;2.00;;;24.00;66.00;;;;;;4907380;29;20052;-78
2022/07/06 09:57:23;;;;;;;5.80;1.92;;;23.80;66.90;;;;;;4906962;29;20027;-81
2022/07/06 09:59:51;;;;;;;4.38;1.48;;;23.80;66.70;;;;;;4905777;29;20349;-76
2022/07/06 10:02:17;;;;;;;5.13;1.80;;;23.80;67.30;;;;;;4904481;29;20044;-79
2022/07/06 10:04:52;;;;;;;3.72;1.60;;;23.80;66.50;;;;;;4907319;29;20033;-79
2022/07/06 10:07:31;;;;;;;6.55;2.15;;;24.00;66.30;;;;;;4907377;29;20176;-79
2022/07/06 10:10:07;;;;;;;6.43;2.55;;;24.10;65.80;;;;;;4908125;29;20076;-79
2022/07/06 10:12:37;;;;;;;5.57;2.30;;;24.20;65.40;;;;;;4906306;29;20095;-77
2022/07/06 10:15:04;;;;;;;7.80;2.22;;;24.30;65.70;;;;;;4906362;29;20329;-78
2022/07/06 10:17:30;;;;;;;3.65;1.90;;;24.10;66.10;;;;;;4907063;29;20322;-79
2022/07/06 10:19:59;;;;;;;7.63;2.10;;;24.10;66.40;;;;;;4906612;29;20037;-78
2022/07/06 10:22:28;;;;;;;4.10;1.77;;;24.20;65.50;;;;;;4910582;29;20064;-77
2022/07/06 10:24:56;;;;;;;4.28;2.00;;;24.30;65.80;;;;;;4913562;29;20040;-74
2022/07/06 10:27:26;;;;;;;3.40;1.65;;;24.30;65.20;;;;;;4915859;29;20033;-77
2022/07/06 10:29:52;;;;;;;5.35;1.52;;;24.30;63.00;;;;;;4918746;29;20052;-76
2022/07/06 10:32:22;;;;;;;6.78;2.03;;;24.40;64.30;;;;;;4916791;29;20040;-76
2022/07/06 10:34:49;;;;;;;6.13;2.10;;;24.60;65.60;;;;;;4904101;29;20127;-74
2022/07/06 10:37:26;;;;;;;7.53;2.00;;;24.40;64.50;;;;;;4918104;29;20053;-78
2022/07/06 10:42:55;;;;;;;5.68;2.00;;;24.20;64.80;;;;;;4917540;29;20095;-75
2022/07/06 10:45:46;;;;;;;3.55;1.40;;;24.30;64.50;;;;;;4913388;29;20072;-76
2022/07/06 10:48:12;;;;;;;5.05;1.77;;;24.50;65.30;;;;;;4927863;29;20052;-76
2022/07/06 10:50:50;;;;;;;5.60;1.60;;;24.70;63.40;;;;;;4912028;29;20024;-77
2022/07/06 10:53:44;;;;;;;3.28;1.73;;;24.50;63.10;;;;;;4910330;29;20036;-78
2022/07/06 10:56:12;;;;;;;4.68;2.10;;;24.60;63.50;;;;;;4903239;29;20029;-77
2022/07/06 10:58:52;;;;;;;4.40;2.00;;;24.60;63.40;;;;;;4917193;29;20055;-75
2022/07/06 11:01:21;;;;;;;3.70;2.00;;;24.60;64.10;;;;;;4899839;29;20040;-77
2022/07/06 11:03:48;;;;;;;4.95;1.92;;;24.50;63.70;;;;;;4932776;29;20083;-76
2022/07/06 11:06:22;;;;;;;5.25;1.90;;;24.50;65.00;;;;;;4910982;29;20106;-75
2022/07/06 11:09:03;;;;;;;2.88;1.83;;;24.90;63.80;;;;;;4909211;29;20039;-76
2022/07/06 11:11:31;;;;;;;3.70;1.60;;;25.30;62.30;;;;;;4903072;29;20251;-75
2022/07/06 11:14:17;;;;;;;4.78;2.00;;;25.50;62.80;;;;;;4902956;29;20032;-75
2022/07/06 11:16:47;;;;;;;5.05;1.73;;;26.00;61.90;;;;;;4902318;29;20061;-75
2022/07/06 11:19:15;;;;;;;3.80;1.77;;;25.90;62.00;;;;;;4888472;29;20125;-76
2022/07/06 11:21:57;;;;;;;;;;;26.30;60.20;;;;;;4904508;29;20108;-74
2022/07/06 11:24:31;;;;;;;4.55;2.00;;;26.60;60.50;;;;;;4889890;29;19915;-74
2022/07/06 11:26:58;;;;;;;4.70;2.03;;;26.30;60.20;;;;;;4904538;29;20096;-73
2022/07/06 11:29:25;;;;;;;4.90;1.70;;;25.80;60.90;;;;;;4908614;29;20032;-73
2022/07/06 11:31:58;;;;;;;4.22;2.03;;;25.70;61.70;;;;;;4907826;29;20056;-75
2022/07/06 11:34:26;;;;;;;3.25;1.55;;;25.80;60.70;;;;;;4908745;29;20028;-72
2022/07/06 11:37:00;;;;;;;4.40;1.40;;;26.20;61.40;;;;;;4906670;29;20044;-75
2022/07/06 11:39:30;;;;;;;5.63;1.73;;;27.10;59.80;;;;;;4905280;29;20048;-74
2022/07/06 11:41:56;;;;;;;4.38;1.80;;;27.30;59.20;;;;;;4905324;29;20219;-74
2022/07/06 11:44:22;;;;;;;5.47;1.90;;;27.40;59.60;;;;;;4904816;29;20045;-76
2022/07/06 11:46:48;;;;;;;4.00;1.60;;;27.80;58.50;;;;;;4905677;29;20133;-76
2022/07/06 11:49:15;;;;;;;5.22;1.60;;;28.00;58.40;;;;;;4907368;29;20025;-74
2022/07/06 11:51:42;;;;;;;4.05;1.60;;;28.50;57.30;;;;;;4913322;29;20034;-76
2022/07/06 11:54:18;;;;;;;5.45;1.58;;;28.50;57.70;;;;;;4911463;29;20096;-74
2022/07/06 11:56:51;;;;;;;3.22;1.65;;;28.50;57.90;;;;;;4914468;29;20227;-76
2022/07/06 11:59:25;;;;;;;5.68;1.75;;;29.60;56.70;;;;;;4914528;29;20092;-75
2022/07/06 12:02:07;;;;;;;4.30;1.88;;;30.90;54.70;;;;;;4916608;29;20119;-75
2022/07/06 12:04:38;;;;;;;5.72;1.70;;;30.00;54.60;;;;;;4913365;29;20160;-76
2022/07/06 12:07:15;;;;;;;4.65;2.38;;;30.30;55.40;;;;;;4920506;29;20031;-75
2022/07/06 12:09:46;;;;;;;4.90;1.90;;;30.90;54.20;;;;;;4922274;29;20032;-75
2022/07/06 12:12:15;;;;;;;6.00;1.65;;;30.90;54.00;;;;;;4923757;29;20048;-77
2022/07/06 12:14:44;;;;;;;6.70;1.42;;;31.60;53.40;;;;;;4907960;29;20047;-76
2022/07/06 12:17:15;;;;;;;3.65;1.40;;;32.80;52.80;;;;;;4909678;29;20095;-77
2022/07/06 12:19:41;;;;;;;5.13;1.60;;;33.10;52.00;;;;;;4909399;29;20040;-77
2022/07/06 12:22:08;;;;;;;4.32;1.52;;;32.30;52.10;;;;;;4909861;29;20045;-76
2022/07/06 12:24:37;;;;;;;3.83;1.70;;;31.60;52.80;;;;;;4908528;29;20048;-76
2022/07/06 12:27:12;;;;;;;4.90;1.50;;;30.40;54.00;;;;;;4909086;29;20255;-74
2022/07/06 12:29:37;;;;;;;4.28;1.58;;;29.90;55.20;;;;;;4908948;29;20021;-77
2022/07/06 12:32:05;;;;;;;6.50;1.85;;;29.90;54.80;;;;;;4923961;29;20052;-74
2022/07/06 12:34:32;;;;;;;7.70;2.00;;;30.00;55.10;;;;;;4909835;29;20036;-75
2022/07/06 12:37:05;;;;;;;12.20;2.47;;;29.90;55.30;;;;;;4924975;29;20048;-76
2022/07/06 12:39:30;;;;;;;6.05;1.77;;;29.90;54.50;;;;;;4907019;29;20146;-76
2022/07/06 12:42:03;;;;;;;4.50;1.67;;;29.30;55.90;;;;;;4908467;29;20062;-75
2022/07/06 12:44:29;;;;;;;4.25;1.80;;;29.00;56.30;;;;;;4907951;29;20287;-76
2022/07/06 12:47:08;;;;;;;3.50;1.88;;;28.50;56.60;;;;;;4908291;29;20044;-77
2022/07/06 12:49:36;;;;;;;5.00;1.80;;;28.10;56.80;;;;;;4908070;29;20039;-76
2022/07/06 12:52:13;;;;;;;5.65;1.85;;;27.70;57.50;;;;;;4908321;29;20100;-77
2022/07/06 12:54:51;;;;;;;4.95;2.10;;;27.60;57.50;;;;;;4908544;29;20029;-78
2022/07/06 12:57:18;;;;;;;4.40;1.90;;;28.00;57.20;;;;;;4908286;29;20093;-76
2022/07/06 12:59:55;;;;;;;5.10;1.50;;;27.80;57.30;;;;;;4910068;29;20024;-77
2022/07/06 13:02:22;;;;;;;6.95;1.58;;;28.10;57.20;;;;;;4926354;29;20118;-76
2022/07/06 13:04:56;;;;;;;2.92;1.25;;;29.80;55.60;;;;;;4925764;29;20099;-76
2022/07/06 13:07:22;;;;;;;5.47;1.55;;;32.40;52.80;;;;;;4907953;29;20092;-76
2022/07/06 13:09:47;;;;;;;4.47;1.20;;;34.50;49.60;;;;;;4911506;29;20032;-75
2022/07/06 13:12:13;;;;;;;5.20;1.52;;;35.00;48.80;;;;;;4908134;29;20016;-77
2022/07/06 13:14:39;;;;;;;4.28;1.30;;;35.90;47.60;;;;;;4908347;29;20051;-77
2022/07/06 13:17:08;;;;;;;5.65;1.00;;;35.60;47.40;;;;;;4922264;29;20036;-76
2022/07/06 13:19:36;;;;;;;8.18;1.50;;;35.30;48.00;;;;;;4907205;29;20055;-76
2022/07/06 13:22:02;;;;;;;3.15;1.10;;;35.70;47.80;;;;;;4907181;29;20096;-76
2022/07/06 13:24:28;;;;;;;6.20;1.85;;;34.40;48.10;;;;;;4907671;29;20032;-76
2022/07/06 13:26:56;;;;;;;3.13;1.10;;;33.80;48.80;;;;;;4907624;29;20032;-77
2022/07/06 13:29:21;;;;;;;4.15;1.20;;;33.10;49.70;;;;;;4907165;29;20230;-76
2022/07/06 13:31:47;;;;;;;7.05;1.45;;;32.80;50.00;;;;;;4907384;29;20040;-74
2022/07/06 13:34:13;;;;;;;5.18;1.45;;;32.80;49.70;;;;;;4907571;29;20232;-77
2022/07/06 13:36:39;;;;;;;5.00;1.40;;;32.10;50.20;;;;;;4908163;29;20040;-75
2022/07/06 13:39:06;;;;;;;3.17;1.33;;;31.40;51.70;;;;;;4907145;29;20036;-76
2022/07/06 13:41:33;;;;;;;3.15;1.00;;;33.20;49.90;;;;;;4907150;29;20048;-78
2022/07/06 13:44:00;;;;;;;3.08;1.02;;;34.30;48.70;;;;;;4907245;29;20251;-77
2022/07/06 13:46:27;;;;;;;3.42;1.17;;;35.60;47.30;;;;;;4906223;29;20044;-76
2022/07/06 13:48:53;;;;;;;5.13;1.13;;;37.10;46.40;;;;;;4907401;29;20036;-75
2022/07/06 13:51:19;;;;;;;3.80;1.10;;;38.10;45.50;;;;;;4906890;29;20044;-75
2022/07/06 13:53:45;;;;;;;4.22;1.20;;;37.10;45.30;;;;;;4907541;29;20024;-75
2022/07/06 13:56:11;;;;;;;4.65;1.25;;;35.50;46.30;;;;;;4907173;29;20040;-75
2022/07/06 13:58:37;;;;;;;3.25;1.10;;;33.70;48.10;;;;;;4907287;29;20085;-75
2022/07/06 14:01:04;;;;;;;2.45;1.20;;;33.30;49.00;;;;;;4906400;29;20107;-74
2022/07/06 14:03:30;;;;;;;6.13;1.20;;;35.10;47.90;;;;;;4909942;29;20063;-75
2022/07/06 14:06:01;;;;;;;3.15;0.98;;;37.10;46.40;;;;;;4922770;29;20036;-75
2022/07/06 14:08:27;;;;;;;;;;;38.00;45.10;;;;;;4908550;29;20337;-74
2022/07/06 14:10:54;;;;;;;3.25;1.00;;;38.70;44.00;;;;;;4913529;29;19903;-77
2022/07/06 14:13:20;;;;;;;3.85;1.00;;;38.30;44.00;;;;;;4928332;29;20047;-76
2022/07/06 14:15:46;;;;;;;5.30;1.63;;;36.50;45.30;;;;;;4926422;29;20071;-76
2022/07/06 14:18:12;;;;;;;6.38;1.10;;;35.30;46.00;;;;;;4923283;29;20315;-75
2022/07/06 14:20:38;;;;;;;4.63;1.50;;;35.40;46.60;;;;;;4907862;29;20043;-76
2022/07/06 14:23:04;;;;;;;3.47;1.13;;;35.90;45.90;;;;;;4908056;29;20318;-77
2022/07/06 14:25:29;;;;;;;6.10;1.10;;;35.90;45.60;;;;;;4907897;29;20032;-75
2022/07/06 14:27:55;;;;;;;3.30;1.23;;;36.70;45.00;;;;;;4908029;29;20040;-75
2022/07/06 14:30:21;;;;;;;3.30;0.80;;;38.00;44.40;;;;;;4921850;29;21782;-76
2022/07/06 14:32:47;;;;;;;5.90;1.38;;;38.20;43.70;;;;;;4907723;29;20103;-73
2022/07/06 14:35:13;;;;;;;2.92;0.95;;;39.00;43.60;;;;;;4907279;29;20025;-75
2022/07/06 14:37:39;;;;;;;4.43;0.90;;;40.00;42.70;;;;;;4907155;29;20040;-75
2022/07/06 14:40:05;;;;;;;4.15;0.95;;;40.10;42.10;;;;;;4908590;29;20025;-74
2022/07/06 14:42:31;;;;;;;3.17;0.73;;;39.90;42.50;;;;;;4907255;29;20209;-74
2022/07/06 14:44:56;;;;;;;1.80;0.70;;;39.80;42.30;;;;;;4906370;29;20100;-75
2022/07/06 14:47:22;;;;;;;7.05;1.27;;;38.90;42.80;;;;;;4921106;29;20094;-76
2022/07/06 14:49:48;;;;;;;3.38;0.70;;;38.20;43.40;;;;;;4907914;29;20036;-75
2022/07/06 14:52:14;;;;;;;4.75;1.25;;;38.10;43.80;;;;;;4907919;29;20044;-76
2022/07/06 14:54:40;;;;;;;3.67;1.10;;;38.70;43.50;;;;;;4907733;29;20313;-76
2022/07/06 14:57:08;;;;;;;3.40;0.80;;;39.20;42.60;;;;;;4907668;29;20051;-76
2022/07/06 14:59:35;;;;;;;4.80;1.02;;;39.80;42.50;;;;;;4921951;29;20052;-74
2022/07/06 15:02:01;;;;;;;4.45;0.70;;;40.30;42.20;;;;;;4906455;29;20044;-75
2022/07/06 15:04:26;;;;;;;3.17;0.90;;;40.10;41.50;;;;;;4906408;29;20199;-74
2022/07/06 15:06:53;;;;;;;3.72;1.40;;;39.40;42.20;;;;;;4906656;29;20056;-73
2022/07/06 15:09:19;;;;;;;3.43;0.97;;;40.30;42.30;;;;;;4906543;29;20100;-74
2022/07/06 15:11:45;;;;;;;5.05;0.90;;;40.90;41.30;;;;;;4906719;29;20298;-76
2022/07/06 15:14:12;;;;;;;2.55;0.80;;;40.50;41.00;;;;;;4916611;29;20056;-76
2022/07/06 15:16:38;;;;;;;2.58;0.80;;;39.30;42.00;;;;;;4925115;29;20047;-74
2022/07/06 15:19:17;;;;;;;2.17;0.75;;;38.40;42.40;;;;;;4940585;29;20107;-78
2022/07/06 15:22:08;;;;;;;3.67;0.65;;;37.30;43.10;;;;;;4916467;29;20037;-73
2022/07/06 15:24:34;;;;;;;3.10;0.75;;;35.10;44.90;;;;;;4906639;29;20032;-74
2022/07/06 15:27:01;;;;;;;3.08;0.80;;;35.30;45.20;;;;;;4906877;29;20088;-75
2022/07/06 15:29:27;;;;;;;2.90;0.82;;;36.30;44.60;;;;;;4906918;29;20226;-75
2022/07/06 15:31:53;;;;;;;2.10;0.75;;;37.00;44.00;;;;;;4908369;29;20059;-75
2022/07/06 15:34:19;;;;;;;4.68;1.20;;;36.00;44.40;;;;;;4902306;29;20048;-74
2022/07/06 15:36:45;;;;;;;2.53;0.90;;;34.80;45.00;;;;;;4892882;29;20045;-73
2022/07/06 15:39:11;;;;;;;2.92;0.80;;;33.30;46.40;;;;;;4899668;29;20064;-72
2022/07/06 15:41:37;;;;;;;1.95;0.85;;;32.70;47.20;;;;;;4911092;29;20024;-74
2022/07/06 15:44:04;;;;;;;1.67;0.80;;;32.50;47.00;;;;;;4911036;29;20035;-73
2022/07/06 15:46:42;;;;;;;4.18;1.10;;;33.00;47.00;;;;;;4907995;29;20040;-73
2022/07/06 15:49:08;;;;;;;2.00;0.80;;;32.70;46.80;;;;;;4908333;29;20161;-73
2022/07/06 15:51:34;;;;;;;3.85;1.35;;;32.60;47.40;;;;;;4908621;29;20278;-74
2022/07/06 15:54:00;;;;;;;2.70;0.88;;;33.80;46.60;;;;;;4910083;29;20302;-74
2022/07/06 15:56:26;;;;;;;2.78;0.90;;;34.00;46.00;;;;;;4909614;29;20100;-74
2022/07/06 15:58:52;;;;;;;2.28;0.70;;;33.40;46.30;;;;;;4909652;29;20088;-74
2022/07/06 16:01:19;;;;;;;2.85;0.80;;;33.80;46.10;;;;;;4908510;29;20052;-74
2022/07/06 16:03:45;;;;;;;1.65;0.80;;;34.60;45.80;;;;;;4909622;29;20101;-73
2022/07/06 16:06:11;;;;;;;4.20;0.80;;;35.00;44.70;;;;;;4908952;29;20040;-74
2022/07/06 16:08:38;;;;;;;4.97;1.10;;;34.60;44.90;;;;;;4905040;29;20033;-73
2022/07/06 16:11:04;;;;;;;2.10;1.05;;;33.60;45.80;;;;;;4905004;29;20169;-72
2022/07/06 16:13:30;;;;;;;2.55;0.98;;;32.90;47.00;;;;;;4925376;29;20052;-74
2022/07/06 16:15:58;;;;;;;4.43;0.80;;;32.90;47.00;;;;;;4923324;29;20079;-75
2022/07/06 16:18:25;;;;;;;1.95;0.85;;;32.50;47.00;;;;;;4906734;29;20043;-76
2022/07/06 16:20:51;;;;;;;3.67;1.10;;;31.70;47.30;;;;;;4905288;29;20056;-75
2022/07/06 16:23:17;;;;;;;1.92;0.70;;;30.80;49.20;;;;;;4906446;29;20104;-74
2022/07/06 16:25:43;;;;;;;3.25;0.65;;;30.00;49.10;;;;;;4908615;29;20033;-76
2022/07/06 16:28:10;;;;;;;3.55;1.00;;;29.30;49.80;;;;;;4908293;29;20242;-73
2022/07/06 16:30:36;;;;;;;2.88;1.00;;;28.90;50.00;;;;;;4921891;29;20056;-76
2022/07/06 16:33:02;;;;;;;2.80;0.80;;;28.50;50.70;;;;;;4908258;29;20222;-75
2022/07/06 16:35:29;;;;;;;3.78;0.85;;;28.10;51.20;;;;;;4906516;29;20036;-75
2022/07/06 16:37:55;;;;;;;2.85;1.00;;;28.10;51.60;;;;;;4908576;29;20028;-76
2022/07/06 16:40:21;;;;;;;2.75;1.02;;;28.20;51.30;;;;;;4907086;29;20024;-75
2022/07/06 16:42:47;;;;;;;3.00;0.88;;;30.00;49.80;;;;;;4908201;29;20258;-76
2022/07/06 16:45:16;;;;;;;3.42;0.90;;;32.40;47.00;;;;;;4907071;29;20210;-78
2022/07/06 16:47:42;;;;;;;3.50;0.98;;;33.80;45.60;;;;;;4906556;29;20036;-75
2022/07/06 16:50:08;;;;;;;3.13;0.80;;;34.50;44.20;;;;;;4906784;29;20360;-76
2022/07/06 16:52:34;;;;;;;2.60;0.65;;;34.30;44.20;;;;;;4906296;29;20044;-75
2022/07/06 16:55:00;;;;;;;1.80;0.65;;;34.00;44.30;;;;;;4907100;29;20243;-72
2022/07/06 16:57:26;;;;;;;2.58;1.08;;;33.10;44.90;;;;;;4906021;29;20303;-73
2022/07/06 16:59:51;;;;;;;2.30;0.88;;;31.80;46.30;;;;;;4903995;29;20374;-74
2022/07/06 17:02:17;;;;;;;2.85;0.77;;;31.10;46.30;;;;;;4887260;29;20379;-73
2022/07/06 17:04:44;;;;;;;2.08;0.70;;;31.10;46.90;;;;;;4895240;29;20095;-73
2022/07/06 17:07:13;;;;;;;2.15;0.80;;;30.60;47.40;;;;;;4906834;29;20046;-73
2022/07/06 17:09:39;;;;;;;2.40;0.82;;;30.30;47.20;;;;;;4906913;29;20168;-72
2022/07/06 17:12:05;;;;;;;2.80;0.93;;;29.50;47.30;;;;;;4906630;29;20060;-73
2022/07/06 17:14:34;;;;;;;2.90;0.80;;;28.80;48.60;;;;;;4920319;29;20085;-75
2022/07/06 17:17:00;;;;;;;2.55;0.85;;;28.20;49.00;;;;;;4906160;29;20040;-74
2022/07/06 17:19:26;;;;;;;2.55;0.90;;;27.90;49.10;;;;;;4906116;29;20136;-75
2022/07/06 17:21:52;;;;;;;2.72;0.80;;;28.00;49.40;;;;;;4906194;29;20330;-75
2022/07/06 17:24:18;;;;;;;3.25;0.90;;;28.40;48.90;;;;;;4905051;29;20047;-76
2022/07/06 17:26:43;;;;;;;2.65;1.00;;;28.90;48.40;;;;;;4906505;29;20040;-74
2022/07/06 17:29:09;;;;;;;3.53;1.10;;;28.90;48.20;;;;;;4906207;29;20056;-75
2022/07/06 17:31:36;;;;;;;2.65;0.85;;;28.70;48.20;;;;;;4905374;29;20067;-73
2022/07/06 17:34:02;;;;;;;2.33;1.05;;;28.00;48.70;;;;;;4906653;29;20096;-74
2022/07/06 17:36:28;;;;;;;3.30;1.00;;;27.60;49.60;;;;;;4906060;29;20033;-75
2022/07/06 17:38:54;;;;;;;3.15;1.02;;;27.50;49.80;;;;;;4906212;29;20039;-75
2022/07/06 17:41:21;;;;;;;4.32;1.10;;;27.50;49.80;;;;;;4906114;29;20327;-75
2022/07/06 17:43:47;;;;;;;3.00;1.30;;;27.50;49.80;;;;;;4905711;29;20039;-74
2022/07/06 17:46:13;;;;;;;3.83;1.45;;;27.50;49.90;;;;;;4904963;29;20045;-73
2022/07/06 17:48:39;;;;;;;4.90;1.50;;;27.20;50.00;;;;;;4905990;29;20349;-74
2022/07/06 17:51:05;;;;;;;4.25;1.55;;;27.10;50.20;;;;;;4905459;29;20084;-74
2022/07/06 17:53:30;;;;;;;3.28;1.40;;;27.10;50.30;;;;;;4904986;29;20068;-74
2022/07/06 17:55:56;;;;;;;5.18;2.38;;;27.50;49.60;;;;;;4920828;29;20028;-74
2022/07/06 17:58:22;;;;;;;3.35;1.90;;;28.00;49.00;;;;;;4905571;29;20216;-74
2022/07/06 18:00:47;;;;;;;3.03;1.70;;;28.40;48.40;;;;;;4905747;29;20040;-73
2022/07/06 18:03:13;;;;;;;3.22;1.70;;;28.20;48.50;;;;;;4904713;29;20072;-74
2022/07/06 18:05:39;;;;;;;3.80;1.90;;;27.60;48.80;;;;;;4905769;29;20239;-73
2022/07/06 18:08:06;;;;;;;3.35;1.60;;;27.00;49.10;;;;;;4905249;29;20064;-73
2022/07/06 18:10:33;;;;;;;3.67;1.73;;;26.50;50.20;;;;;;4906167;29;20067;-73
2022/07/06 18:12:59;;;;;;;4.85;1.73;;;25.80;51.10;;;;;;4906088;29;20024;-74